createdAt,value
2016-02-03T00:01:47.200Z,0
2016-02-03T00:01:59.858Z,0
2016-02-03T00:02:59.845Z,0
2016-02-03T00:03:59.848Z,0
2016-02-03T00:04:59.866Z,0
2016-02-03T00:05:59.900Z,0
2016-02-03T00:06:59.872Z,0
2016-02-03T00:07:59.891Z,0
2016-02-03T00:08:59.893Z,0
2016-02-03T00:09:59.895Z,0
2016-02-03T00:10:59.914Z,0
2016-02-03T00:11:59.901Z,0
2016-02-03T00:12:59.919Z,0
2016-02-03T00:13:59.923Z,0
2016-02-03T00:14:59.943Z,0
2016-02-03T00:15:59.929Z,0
2016-02-03T00:16:59.932Z,0
2016-02-03T00:17:59.934Z,0
2016-02-03T00:18:59.954Z,0
2016-02-03T00:19:59.941Z,0
2016-02-03T00:20:59.960Z,0
2016-02-03T00:21:59.977Z,0
2016-02-03T00:22:59.964Z,0
2016-02-03T00:23:59.972Z,0
2016-02-03T00:24:59.974Z,0
2016-02-03T00:25:59.992Z,0
2016-02-03T00:27:00.010Z,0
2016-02-03T00:28:00.001Z,0
2016-02-03T00:29:00.004Z,0
2016-02-03T00:30:00.023Z,0
2016-02-03T00:31:00.025Z,0
2016-02-03T00:32:00.044Z,0
2016-02-03T00:33:00.011Z,0
2016-02-03T00:34:00.031Z,0
2016-02-03T00:35:00.049Z,0
2016-02-03T00:36:00.036Z,0
2016-02-03T00:37:00.038Z,0
2016-02-03T00:38:00.073Z,0
2016-02-03T00:39:00.045Z,0
2016-02-03T00:40:00.078Z,0
2016-02-03T00:41:00.093Z,0
2016-02-03T00:42:00.065Z,0
2016-02-03T00:43:00.086Z,0
2016-02-03T00:44:00.079Z,0
2016-02-03T00:45:00.128Z,0
2016-02-03T00:46:00.100Z,0
2016-02-03T00:46:59.944Z,0
2016-02-03T00:48:00.102Z,0
2016-02-03T00:49:00.105Z,0
2016-02-03T00:50:00.126Z,0
2016-02-03T00:51:00.112Z,0
2016-02-03T00:52:00.132Z,0
2016-02-03T00:53:00.151Z,0
2016-02-03T00:54:00.140Z,0
2016-02-03T00:55:00.157Z,0
2016-02-03T00:56:00.176Z,0
2016-02-03T00:57:00.007Z,0
2016-02-03T00:58:00.167Z,0
2016-02-03T00:59:00.169Z,0
2016-02-03T01:02:18.118Z,0
2016-02-03T01:02:46.836Z,0
2016-02-03T01:03:46.680Z,0
2016-02-03T01:04:46.813Z,0
2016-02-03T01:05:46.815Z,0
2016-02-03T01:06:46.851Z,0
2016-02-03T01:07:46.822Z,0
2016-02-03T01:08:46.846Z,0
2016-02-03T01:09:46.863Z,0
2016-02-03T01:10:46.852Z,0
2016-02-03T01:11:46.869Z,0
2016-02-03T01:12:46.872Z,0
2016-02-03T01:13:46.891Z,0
2016-02-03T01:14:46.893Z,0
2016-02-03T01:15:46.866Z,0
2016-02-03T01:16:46.884Z,0
2016-02-03T01:17:46.886Z,0
2016-02-03T01:18:46.888Z,0
2016-02-03T01:19:46.891Z,0
2016-02-03T01:20:46.909Z,0
2016-02-03T01:21:46.895Z,0
2016-02-03T01:22:46.913Z,0
2016-02-03T01:23:46.947Z,0
2016-02-03T01:24:46.921Z,0
2016-02-03T01:25:46.925Z,0
2016-02-03T01:26:46.959Z,0
2016-02-03T01:27:46.776Z,0
2016-02-03T01:28:46.965Z,0
2016-02-03T01:29:46.952Z,0
2016-02-03T01:34:43.778Z,0
2016-02-03T01:34:56.434Z,0
2016-02-03T01:35:56.438Z,0
2016-02-03T01:36:56.456Z,0
2016-02-03T01:37:56.428Z,0
2016-02-03T01:38:56.461Z,0
2016-02-03T01:39:56.480Z,0
2016-02-03T01:40:56.452Z,0
2016-02-03T01:41:56.470Z,0
2016-02-03T01:42:56.473Z,0
2016-02-03T01:43:56.476Z,0
2016-02-03T01:44:56.494Z,0
2016-02-03T01:45:56.481Z,0
2016-02-03T01:46:56.484Z,0
2016-02-03T01:47:56.533Z,0
2016-02-03T01:48:56.537Z,0
2016-02-03T01:49:56.507Z,0
2016-02-03T01:50:56.510Z,0
2016-02-03T01:51:56.357Z,0
2016-02-03T01:52:56.518Z,0
2016-02-03T01:53:56.538Z,0
2016-02-03T01:54:56.557Z,0
2016-02-03T01:55:56.574Z,0
2016-02-03T01:56:56.593Z,0
2016-02-03T01:57:56.564Z,0
2016-02-03T01:58:56.556Z,0
2016-02-03T02:01:47.095Z,0
2016-02-03T02:02:11.864Z,0
2016-02-03T02:03:11.882Z,0
2016-02-03T02:04:11.869Z,0
2016-02-03T02:05:11.872Z,0
2016-02-03T02:06:11.905Z,0
2016-02-03T02:07:11.893Z,0
2016-02-03T02:08:11.911Z,0
2016-02-03T02:09:11.898Z,0
2016-02-03T02:10:11.900Z,0
2016-02-03T02:11:11.921Z,0
2016-02-03T02:12:11.970Z,0
2016-02-03T02:13:11.926Z,0
2016-02-03T02:14:11.943Z,0
2016-02-03T02:15:11.967Z,0
2016-02-03T02:16:11.939Z,0
2016-02-03T02:17:11.941Z,0
2016-02-03T02:18:11.976Z,0
2016-02-03T02:19:11.963Z,0
2016-02-03T02:20:11.965Z,0
2016-02-03T02:21:11.984Z,0
2016-02-03T02:22:11.979Z,0
2016-02-03T02:23:11.981Z,0
2016-02-03T02:24:12.000Z,0
2016-02-03T02:25:11.987Z,0
2016-02-03T02:26:12.006Z,0
2016-02-03T02:27:12.023Z,0
2016-02-03T02:28:12.011Z,0
2016-02-03T02:29:12.028Z,0
2016-02-03T02:31:23.692Z,0
2016-02-03T02:31:36.332Z,0
2016-02-03T02:32:36.368Z,0
2016-02-03T02:33:36.356Z,0
2016-02-03T02:34:36.360Z,0
2016-02-03T02:35:36.362Z,0
2016-02-03T02:36:36.364Z,0
2016-02-03T02:37:36.370Z,0
2016-02-03T02:38:36.387Z,0
2016-02-03T02:39:36.376Z,0
2016-02-03T02:40:36.378Z,0
2016-02-03T02:41:36.396Z,0
2016-02-03T02:42:36.401Z,0
2016-02-03T02:43:36.437Z,0
2016-02-03T02:44:36.407Z,0
2016-02-03T02:45:36.410Z,0
2016-02-03T02:46:36.412Z,0
2016-02-03T02:47:36.431Z,0
2016-02-03T02:48:36.450Z,0
2016-02-03T02:49:36.426Z,0
2016-02-03T02:50:36.428Z,0
2016-02-03T02:51:36.524Z,0
2016-02-03T02:52:36.450Z,0
2016-02-03T02:53:36.453Z,0
2016-02-03T02:54:36.471Z,0
2016-02-03T02:55:36.186Z,0
2016-02-03T02:56:41.303Z,0
2016-02-03T02:57:36.666Z,0
2016-02-03T02:58:36.925Z,0
2016-02-03T02:59:36.564Z,0
2016-02-03T03:00:56.770Z,0
2016-02-03T03:01:36.523Z,0
2016-02-03T03:02:36.509Z,0
2016-02-03T03:03:36.512Z,0
2016-02-03T03:04:36.546Z,0
2016-02-03T03:05:36.517Z,0
2016-02-03T03:06:36.521Z,0
2016-02-03T03:07:36.539Z,0
2016-02-03T03:08:36.544Z,0
2016-02-03T03:09:36.562Z,0
2016-02-03T03:10:36.549Z,0
2016-02-03T03:11:36.567Z,0
2016-02-03T03:12:36.570Z,0
2016-02-03T03:13:36.559Z,0
2016-02-03T03:14:36.576Z,0
2016-02-03T03:15:36.580Z,0
2016-02-03T03:16:36.583Z,0
2016-02-03T03:17:36.601Z,0
2016-02-03T03:18:36.587Z,0
2016-02-03T03:19:36.590Z,0
2016-02-03T03:20:36.610Z,0
2016-02-03T03:21:36.613Z,0
2016-02-03T03:22:36.631Z,0
2016-02-03T03:23:36.633Z,0
2016-02-03T03:24:36.621Z,0
2016-02-03T03:25:36.625Z,0
2016-02-03T03:26:36.674Z,0
2016-02-03T03:27:36.646Z,0
2016-02-03T03:28:36.648Z,0
2016-02-03T03:29:36.668Z,0
2016-02-03T03:31:02.342Z,0
2016-02-03T03:31:36.657Z,0
2016-02-03T03:32:36.693Z,0
2016-02-03T03:33:36.695Z,0
2016-02-03T03:34:36.682Z,0
2016-02-03T03:35:36.701Z,0
2016-02-03T03:36:36.734Z,0
2016-02-03T03:37:36.690Z,0
2016-02-03T03:38:36.708Z,0
2016-02-03T03:39:36.727Z,0
2016-02-03T03:40:36.573Z,0
2016-02-03T03:41:36.732Z,0
2016-02-03T03:42:36.719Z,0
2016-02-03T03:43:36.737Z,0
2016-02-03T03:44:36.728Z,0
2016-02-03T03:45:36.761Z,0
2016-02-03T03:46:36.608Z,0
2016-02-03T03:47:36.750Z,0
2016-02-03T03:48:36.753Z,0
2016-02-03T03:49:36.772Z,0
2016-02-03T03:50:36.775Z,0
2016-02-03T03:51:36.778Z,0
2016-02-03T03:52:36.796Z,0
2016-02-03T03:53:36.815Z,0
2016-02-03T03:54:36.802Z,0
2016-02-03T03:55:36.821Z,0
2016-02-03T03:56:36.793Z,0
2016-02-03T03:57:36.826Z,0
2016-02-03T03:58:36.814Z,0
2016-02-03T03:59:36.817Z,0
2016-02-03T04:04:08.300Z,0
2016-02-03T04:04:26.085Z,0
2016-02-03T04:05:26.103Z,0
2016-02-03T04:06:26.105Z,0
2016-02-03T04:07:26.109Z,0
2016-02-03T04:08:26.111Z,0
2016-02-03T04:09:26.129Z,0
2016-02-03T04:10:25.976Z,0
2016-02-03T04:11:26.120Z,0
2016-02-03T04:12:26.138Z,0
2016-02-03T04:13:26.141Z,0
2016-02-03T04:14:26.143Z,0
2016-02-03T04:15:26.165Z,0
2016-02-03T04:16:26.197Z,0
2016-02-03T04:17:26.170Z,0
2016-02-03T04:18:26.156Z,0
2016-02-03T04:19:26.191Z,0
2016-02-03T04:20:26.177Z,0
2016-02-03T04:21:26.180Z,0
2016-02-03T04:22:26.184Z,0
2016-02-03T04:23:26.203Z,0
2016-02-03T04:24:26.190Z,0
2016-02-03T04:25:26.209Z,0
2016-02-03T04:26:26.212Z,0
2016-02-03T04:27:26.218Z,0
2016-02-03T04:28:26.235Z,0
2016-02-03T04:29:26.224Z,0
2016-02-03T04:33:20.406Z,0
2016-02-03T04:34:15.486Z,0
2016-02-03T04:35:15.522Z,0
2016-02-03T04:36:15.508Z,0
2016-02-03T04:37:15.511Z,0
2016-02-03T04:38:15.514Z,0
2016-02-03T04:39:15.516Z,0
2016-02-03T04:40:15.535Z,0
2016-02-03T04:41:15.569Z,0
2016-02-03T04:42:15.525Z,0
2016-02-03T04:43:15.544Z,0
2016-02-03T04:44:15.546Z,0
2016-02-03T04:45:15.581Z,0
2016-02-03T04:46:15.567Z,0
2016-02-03T04:47:15.570Z,0
2016-02-03T04:48:15.589Z,0
2016-02-03T04:49:15.576Z,0
2016-02-03T04:50:15.579Z,0
2016-02-03T04:51:15.597Z,0
2016-02-03T04:52:15.584Z,0
2016-02-03T04:53:15.587Z,0
2016-02-03T04:54:15.622Z,0
2016-02-03T04:55:15.625Z,0
2016-02-03T04:56:15.613Z,0
2016-02-03T04:57:15.615Z,0
2016-02-03T04:58:15.618Z,0
2016-02-03T04:59:15.621Z,0
2016-02-03T05:01:07.204Z,0
2016-02-03T05:01:19.876Z,0
2016-02-03T05:02:19.863Z,0
2016-02-03T05:03:19.866Z,0
2016-02-03T05:04:19.889Z,0
2016-02-03T05:05:19.866Z,0
2016-02-03T05:06:19.885Z,0
2016-02-03T05:07:19.949Z,0
2016-02-03T05:08:19.921Z,0
2016-02-03T05:09:19.909Z,0
2016-02-03T05:10:19.896Z,0
2016-02-03T05:11:19.914Z,0
2016-02-03T05:12:19.933Z,0
2016-02-03T05:13:19.923Z,0
2016-02-03T05:14:19.926Z,0
2016-02-03T05:15:19.944Z,0
2016-02-03T05:16:19.946Z,0
2016-02-03T05:17:19.950Z,0
2016-02-03T05:18:19.969Z,0
2016-02-03T05:19:19.955Z,0
2016-02-03T05:20:19.802Z,0
2016-02-03T05:21:19.991Z,0
2016-02-03T05:22:19.979Z,0
2016-02-03T05:23:19.966Z,0
2016-02-03T05:24:20.002Z,0
2016-02-03T05:25:19.990Z,0
2016-02-03T05:26:19.993Z,0
2016-02-03T05:27:19.996Z,0
2016-02-03T05:28:19.841Z,0
2016-02-03T05:29:20.005Z,0
2016-02-03T05:30:40.229Z,0
2016-02-03T05:31:20.026Z,0
2016-02-03T05:32:20.028Z,0
2016-02-03T05:33:20.047Z,0
2016-02-03T05:34:20.050Z,0
2016-02-03T05:35:20.053Z,0
2016-02-03T05:36:20.040Z,0
2016-02-03T05:37:20.074Z,0
2016-02-03T05:38:20.050Z,0
2016-02-03T05:39:20.070Z,0
2016-02-03T05:40:20.088Z,0
2016-02-03T05:41:20.060Z,0
2016-02-03T05:42:20.094Z,0
2016-02-03T05:43:20.097Z,0
2016-02-03T05:44:20.101Z,0
2016-02-03T05:45:20.103Z,0
2016-02-03T05:46:20.122Z,0
2016-02-03T05:47:20.108Z,0
2016-02-03T05:48:20.128Z,0
2016-02-03T05:49:20.130Z,0
2016-02-03T05:50:20.117Z,0
2016-02-03T05:51:20.135Z,0
2016-02-03T05:52:20.154Z,0
2016-02-03T05:53:20.142Z,0
2016-02-03T05:54:20.160Z,0
2016-02-03T05:55:20.147Z,0
2016-02-03T05:56:20.185Z,0
2016-02-03T05:57:20.171Z,0
2016-02-03T05:58:20.173Z,0
2016-02-03T05:59:20.177Z,0
2016-02-03T06:06:40.055Z,0
2016-02-03T06:06:58.711Z,0
2016-02-03T06:07:58.702Z,0
2016-02-03T06:08:58.704Z,0
2016-02-03T06:09:58.708Z,0
2016-02-03T06:10:58.710Z,0
2016-02-03T06:11:58.729Z,0
2016-02-03T06:12:58.747Z,0
2016-02-03T06:13:58.719Z,0
2016-02-03T06:14:58.741Z,0
2016-02-03T06:15:58.744Z,0
2016-02-03T06:16:58.746Z,0
2016-02-03T06:17:58.765Z,0
2016-02-03T06:18:58.767Z,0
2016-02-03T06:19:58.771Z,0
2016-02-03T06:20:58.773Z,0
2016-02-03T06:21:58.776Z,0
2016-02-03T06:22:58.803Z,0
2016-02-03T06:23:58.789Z,0
2016-02-03T06:24:58.794Z,0
2016-02-03T06:25:58.827Z,0
2016-02-03T06:26:58.833Z,0
2016-02-03T06:27:58.805Z,0
2016-02-03T06:28:58.824Z,0
2016-02-03T06:36:09.186Z,0
2016-02-03T06:36:21.845Z,0
2016-02-03T06:37:21.894Z,0
2016-02-03T06:38:21.851Z,0
2016-02-03T06:39:21.868Z,0
2016-02-03T06:40:21.902Z,0
2016-02-03T06:41:21.873Z,0
2016-02-03T06:42:21.876Z,0
2016-02-03T06:43:21.879Z,0
2016-02-03T06:44:21.881Z,0
2016-02-03T06:45:21.900Z,0
2016-02-03T06:46:21.906Z,0
2016-02-03T06:47:21.892Z,0
2016-02-03T06:48:21.927Z,0
2016-02-03T06:49:21.913Z,0
2016-02-03T06:50:21.916Z,0
2016-02-03T06:51:21.936Z,0
2016-02-03T06:52:21.925Z,0
2016-02-03T06:53:21.932Z,0
2016-02-03T06:54:21.965Z,0
2016-02-03T06:55:21.952Z,0
2016-02-03T06:56:21.971Z,0
2016-02-03T06:57:21.974Z,0
2016-02-03T06:58:21.962Z,0
2016-02-03T06:59:21.965Z,0
2016-02-03T07:03:31.424Z,0
2016-02-03T07:04:11.221Z,0
2016-02-03T07:05:11.213Z,0
2016-02-03T07:06:11.206Z,0
2016-02-03T07:07:11.216Z,0
2016-02-03T07:08:11.199Z,0
2016-02-03T07:09:11.214Z,0
2016-02-03T07:10:11.198Z,0
2016-02-03T07:11:11.229Z,0
2016-02-03T07:12:11.213Z,0
2016-02-03T07:13:11.214Z,0
2016-02-03T07:14:11.215Z,0
2016-02-03T07:15:11.216Z,0
2016-02-03T07:16:11.218Z,0
2016-02-03T07:17:11.234Z,0
2016-02-03T07:18:11.253Z,0
2016-02-03T07:19:11.224Z,0
2016-02-03T07:20:11.241Z,0
2016-02-03T07:21:11.245Z,0
2016-02-03T07:22:11.246Z,0
2016-02-03T07:23:11.250Z,0
2016-02-03T07:24:11.284Z,0
2016-02-03T07:25:11.271Z,0
2016-02-03T07:26:11.258Z,0
2016-02-03T07:27:11.277Z,0
2016-02-03T07:28:11.294Z,0
2016-02-03T07:29:11.282Z,0
2016-02-03T07:36:10.054Z,0
2016-02-03T07:36:49.808Z,0
2016-02-03T07:37:49.669Z,0
2016-02-03T07:38:49.828Z,0
2016-02-03T07:39:49.831Z,0
2016-02-03T07:40:49.833Z,0
2016-02-03T07:41:49.853Z,0
2016-02-03T07:42:49.840Z,0
2016-02-03T07:43:49.858Z,0
2016-02-03T07:44:49.846Z,0
2016-02-03T07:45:49.848Z,0
2016-02-03T07:46:49.867Z,0
2016-02-03T07:47:49.869Z,0
2016-02-03T07:48:49.900Z,0
2016-02-03T07:49:49.888Z,0
2016-02-03T07:50:49.890Z,0
2016-02-03T07:51:49.909Z,0
2016-02-03T07:52:49.912Z,0
2016-02-03T07:53:49.900Z,0
2016-02-03T07:54:49.917Z,0
2016-02-03T07:55:49.951Z,0
2016-02-03T07:56:49.923Z,0
2016-02-03T07:57:49.941Z,0
2016-02-03T07:58:49.928Z,4
2016-02-03T07:59:49.962Z,4
2016-02-03T08:03:48.239Z,0
2016-02-03T08:04:39.210Z,0
2016-02-03T08:05:39.228Z,4
2016-02-03T08:06:39.230Z,4
2016-02-03T08:07:39.234Z,0
2016-02-03T08:08:39.253Z,4
2016-02-03T08:09:39.286Z,4
2016-02-03T08:10:39.258Z,4
2016-02-03T08:11:39.261Z,4
2016-02-03T08:12:39.263Z,4
2016-02-03T08:13:39.267Z,4
2016-02-03T08:14:39.285Z,4
2016-02-03T08:15:39.288Z,8
2016-02-03T08:16:39.290Z,8
2016-02-03T08:17:39.308Z,8
2016-02-03T08:18:39.311Z,8
2016-02-03T08:19:39.314Z,8
2016-02-03T08:20:39.336Z,8
2016-02-03T08:21:39.323Z,8
2016-02-03T08:22:39.341Z,8
2016-02-03T08:23:39.392Z,8
2016-02-03T08:24:39.347Z,4
2016-02-03T08:25:39.381Z,8
2016-02-03T08:26:39.367Z,4
2016-02-03T08:27:39.370Z,4
2016-02-03T08:28:39.373Z,8
2016-02-03T08:29:39.376Z,8
2016-02-03T08:30:59.613Z,8
2016-02-03T08:31:39.397Z,4
2016-02-03T08:32:39.401Z,8
2016-02-03T08:33:39.435Z,8
2016-02-03T08:34:39.422Z,4
2016-02-03T08:35:39.440Z,4
2016-02-03T08:36:39.442Z,4
2016-02-03T08:37:39.430Z,8
2016-02-03T08:38:39.447Z,4
2016-02-03T08:39:39.451Z,4
2016-02-03T08:40:39.454Z,4
2016-02-03T08:41:39.489Z,4
2016-02-03T08:42:39.475Z,4
2016-02-03T08:43:39.478Z,4
2016-02-03T08:44:39.482Z,8
2016-02-03T08:45:39.485Z,4
2016-02-03T08:46:39.505Z,8
2016-02-03T08:47:39.522Z,8
2016-02-03T08:48:39.510Z,8
2016-02-03T08:49:39.516Z,8
2016-02-03T08:50:39.535Z,8
2016-02-03T08:51:39.524Z,8
2016-02-03T08:52:39.543Z,8
2016-02-03T08:53:39.562Z,8
2016-02-03T08:54:39.596Z,4
2016-02-03T08:55:39.568Z,4
2016-02-03T08:56:39.555Z,4
2016-02-03T08:57:39.574Z,4
2016-02-03T08:58:39.608Z,0
2016-02-03T08:59:39.580Z,0
2016-02-03T09:00:39.597Z,0
2016-02-03T09:01:39.616Z,4
2016-02-03T09:02:39.603Z,0
2016-02-03T09:03:39.471Z,4
2016-02-03T09:04:39.636Z,4
2016-02-03T09:05:39.631Z,4
2016-02-03T09:06:39.649Z,8
2016-02-03T09:07:39.652Z,8
2016-02-03T09:08:39.498Z,4
2016-02-03T09:09:39.673Z,8
2016-02-03T09:10:39.677Z,8
2016-02-03T09:11:39.663Z,8
2016-02-03T09:12:39.698Z,12
2016-02-03T09:13:39.685Z,16
2016-02-03T09:14:39.691Z,20
2016-02-03T09:15:39.708Z,32
2016-02-03T09:16:39.727Z,40
2016-02-03T09:17:39.729Z,56
2016-02-03T09:18:39.733Z,436
2016-02-03T09:19:39.719Z,412
2016-02-03T09:20:39.737Z,260
2016-02-03T09:21:39.600Z,224
2016-02-03T09:22:39.780Z,88
2016-02-03T09:23:39.752Z,48
2016-02-03T09:24:39.786Z,48
2016-02-03T09:25:39.788Z,48
2016-02-03T09:26:39.776Z,164
2016-02-03T09:27:39.809Z,52
2016-02-03T09:28:39.796Z,92
2016-02-03T09:29:39.814Z,28
2016-02-03T09:37:09.896Z,480
2016-02-03T09:37:22.553Z,484
2016-02-03T09:38:22.570Z,416
2016-02-03T09:39:22.558Z,76
2016-02-03T09:40:22.575Z,156
2016-02-03T09:41:22.625Z,440
2016-02-03T09:42:22.598Z,400
2016-02-03T09:43:22.600Z,252
2016-02-03T09:44:22.634Z,356
2016-02-03T09:45:22.668Z,436
2016-02-03T09:46:22.639Z,436
2016-02-03T09:47:22.659Z,428
2016-02-03T09:48:22.646Z,208
2016-02-03T09:49:22.664Z,396
2016-02-03T09:50:22.682Z,40
2016-02-03T09:51:22.686Z,112
2016-02-03T09:52:22.721Z,104
2016-02-03T09:53:22.723Z,44
2016-02-03T09:54:22.741Z,176
2016-02-03T09:55:22.729Z,44
2016-02-03T09:56:22.747Z,156
2016-02-03T09:57:22.749Z,28
2016-02-03T09:58:22.768Z,72
2016-02-03T09:59:22.801Z,88
2016-02-03T10:06:58.294Z,104
2016-02-03T10:07:10.997Z,60
2016-02-03T10:08:10.968Z,172
2016-02-03T10:09:10.985Z,124
2016-02-03T10:10:11.020Z,140
2016-02-03T10:11:11.038Z,120
2016-02-03T10:12:11.041Z,104
2016-02-03T10:13:11.030Z,92
2016-02-03T10:14:11.065Z,88
2016-02-03T10:15:11.068Z,76
2016-02-03T10:16:11.055Z,76
2016-02-03T10:17:11.073Z,76
2016-02-03T10:18:11.093Z,76
2016-02-03T10:19:11.105Z,72
2016-02-03T10:20:11.108Z,56
2016-02-03T10:21:10.955Z,36
2016-02-03T10:22:11.130Z,64
2016-02-03T10:23:11.147Z,60
2016-02-03T10:24:11.166Z,32
2016-02-03T10:25:11.153Z,28
2016-02-03T10:26:11.173Z,60
2016-02-03T10:27:11.190Z,32
2016-02-03T10:28:11.178Z,52
2016-02-03T10:29:11.195Z,32
2016-02-03T10:35:44.090Z,32
2016-02-03T10:36:44.077Z,28
2016-02-03T10:37:44.114Z,28
2016-02-03T10:38:44.085Z,32
2016-02-03T10:39:44.088Z,32
2016-02-03T10:40:44.153Z,24
2016-02-03T10:41:44.125Z,20
2016-02-03T10:42:44.127Z,28
2016-02-03T10:43:44.146Z,28
2016-02-03T10:44:44.166Z,24
2016-02-03T10:45:44.153Z,20
2016-02-03T10:46:44.187Z,32
2016-02-03T10:47:44.159Z,20
2016-02-03T10:48:44.176Z,24
2016-02-03T10:49:44.539Z,36
2016-02-03T10:50:44.229Z,28
2016-02-03T10:51:44.216Z,24
2016-02-03T10:52:44.219Z,32
2016-02-03T10:53:44.226Z,24
2016-02-03T10:54:44.229Z,20
2016-02-03T10:55:44.247Z,24
2016-02-03T10:56:44.251Z,24
2016-02-03T10:57:44.253Z,20
2016-02-03T10:58:44.287Z,20
2016-02-03T10:59:44.275Z,16
2016-02-03T11:01:35.812Z,16
2016-02-03T11:01:48.484Z,16
2016-02-03T11:02:48.487Z,16
2016-02-03T11:03:48.490Z,16
2016-02-03T11:04:48.493Z,24
2016-02-03T11:05:48.527Z,28
2016-02-03T11:06:48.514Z,24
2016-02-03T11:07:48.516Z,24
2016-02-03T11:08:48.522Z,28
2016-02-03T11:09:48.541Z,28
2016-02-03T11:10:48.575Z,28
2016-02-03T11:11:48.561Z,20
2016-02-03T11:12:48.564Z,16
2016-02-03T11:13:48.566Z,28
2016-02-03T11:14:48.586Z,20
2016-02-03T11:15:48.577Z,624
2016-02-03T11:16:48.613Z,556
2016-02-03T11:17:48.599Z,572
2016-02-03T11:18:48.619Z,584
2016-02-03T11:19:48.621Z,588
2016-02-03T11:20:48.656Z,584
2016-02-03T11:21:48.642Z,580
2016-02-03T11:22:48.614Z,508
2016-02-03T11:23:48.633Z,492
2016-02-03T11:24:48.651Z,492
2016-02-03T11:25:48.685Z,484
2016-02-03T11:26:48.673Z,500
2016-02-03T11:27:48.677Z,476
2016-02-03T11:28:48.664Z,536
2016-02-03T11:29:48.683Z,492
2016-02-03T11:32:55.535Z,516
2016-02-03T11:33:55.537Z,552
2016-02-03T11:34:55.540Z,516
2016-02-03T11:35:55.561Z,564
2016-02-03T11:36:55.564Z,748
2016-02-03T11:37:55.567Z,632
2016-02-03T11:38:55.569Z,528
2016-02-03T11:39:55.574Z,468
2016-02-03T11:40:55.593Z,464
2016-02-03T11:41:55.580Z,536
2016-02-03T11:42:55.613Z,532
2016-02-03T11:43:55.616Z,584
2016-02-03T11:44:55.619Z,496
2016-02-03T11:45:55.637Z,412
2016-02-03T11:46:55.468Z,508
2016-02-03T11:47:55.627Z,564
2016-02-03T11:48:55.649Z,488
2016-02-03T11:49:55.668Z,528
2016-02-03T11:50:55.670Z,524
2016-02-03T11:51:55.660Z,520
2016-02-03T11:52:55.662Z,640
2016-02-03T11:53:55.697Z,568
2016-02-03T11:54:55.684Z,500
2016-02-03T11:55:55.547Z,544
2016-02-03T11:56:55.689Z,496
2016-02-03T11:57:55.708Z,512
2016-02-03T11:58:55.727Z,420
2016-02-03T12:07:16.177Z,424
2016-02-03T12:07:49.540Z,384
2016-02-03T12:08:49.574Z,400
2016-02-03T12:09:49.560Z,364
2016-02-03T12:10:49.563Z,344
2016-02-03T12:11:49.582Z,408
2016-02-03T12:12:49.585Z,452
2016-02-03T12:13:49.619Z,448
2016-02-03T12:14:49.591Z,484
2016-02-03T12:15:49.593Z,484
2016-02-03T12:16:49.611Z,460
2016-02-03T12:17:49.613Z,448
2016-02-03T12:18:49.656Z,520
2016-02-03T12:19:49.658Z,560
2016-02-03T12:20:49.629Z,544
2016-02-03T12:21:49.663Z,556
2016-02-03T12:22:49.666Z,440
2016-02-03T12:23:49.685Z,424
2016-02-03T12:24:49.688Z,444
2016-02-03T12:25:49.678Z,404
2016-02-03T12:26:49.681Z,436
2016-02-03T12:27:49.684Z,456
2016-02-03T12:28:49.734Z,424
2016-02-03T12:29:49.705Z,404
2016-02-03T12:32:14.104Z,324
2016-02-03T12:32:26.822Z,336
2016-02-03T12:33:26.779Z,360
2016-02-03T12:34:26.797Z,344
2016-02-03T12:35:26.802Z,352
2016-02-03T12:36:26.821Z,340
2016-02-03T12:37:26.808Z,364
2016-02-03T12:38:26.813Z,316
2016-02-03T12:39:26.831Z,316
2016-02-03T12:40:26.849Z,292
2016-02-03T12:41:26.852Z,264
2016-02-03T12:42:26.854Z,280
2016-02-03T12:43:26.844Z,288
2016-02-03T12:44:26.878Z,248
2016-02-03T12:45:26.895Z,256
2016-02-03T12:46:26.883Z,252
2016-02-03T12:47:26.885Z,256
2016-02-03T12:48:26.888Z,256
2016-02-03T12:49:26.891Z,256
2016-02-03T12:50:26.911Z,280
2016-02-03T12:51:26.913Z,284
2016-02-03T12:52:26.916Z,260
2016-02-03T12:53:26.934Z,300
2016-02-03T12:54:26.922Z,288
2016-02-03T12:55:26.957Z,256
2016-02-03T12:56:26.960Z,240
2016-02-03T12:57:26.964Z,236
2016-02-03T12:58:26.936Z,252
2016-02-03T12:59:26.954Z,268
2016-02-03T13:03:20.418Z,260
2016-02-03T13:04:16.249Z,264
2016-02-03T13:05:16.252Z,276
2016-02-03T13:06:16.255Z,284
2016-02-03T13:07:16.258Z,284
2016-02-03T13:08:16.260Z,316
2016-02-03T13:09:16.263Z,312
2016-02-03T13:10:16.265Z,284
2016-02-03T13:11:16.268Z,292
2016-02-03T13:12:16.302Z,316
2016-02-03T13:13:16.305Z,268
2016-02-03T13:14:16.307Z,240
2016-02-03T13:15:16.343Z,228
2016-02-03T13:16:16.329Z,232
2016-02-03T13:17:16.331Z,288
2016-02-03T13:18:16.318Z,304
2016-02-03T13:19:16.341Z,240
2016-02-03T13:20:16.343Z,256
2016-02-03T13:21:16.349Z,256
2016-02-03T13:22:16.352Z,384
2016-02-03T13:23:16.355Z,424
2016-02-03T13:24:16.373Z,440
2016-02-03T13:25:16.235Z,460
2016-02-03T13:26:16.426Z,312
2016-02-03T13:27:16.384Z,308
2016-02-03T13:28:16.401Z,316
2016-02-03T13:29:16.406Z,284
2016-02-03T13:35:32.627Z,188
2016-02-03T13:36:32.646Z,188
2016-02-03T13:37:32.650Z,252
2016-02-03T13:38:32.667Z,216
2016-02-03T13:39:32.655Z,196
2016-02-03T13:40:32.672Z,180
2016-02-03T13:41:32.678Z,168
2016-02-03T13:42:32.680Z,164
2016-02-03T13:43:32.684Z,188
2016-02-03T13:44:32.702Z,260
2016-02-03T13:45:32.706Z,260
2016-02-03T13:46:32.724Z,260
2016-02-03T13:47:32.742Z,196
2016-02-03T13:48:32.730Z,196
2016-02-03T13:49:32.718Z,204
2016-02-03T13:50:32.736Z,200
2016-02-03T13:51:32.754Z,180
2016-02-03T13:52:32.756Z,172
2016-02-03T13:53:32.746Z,164
2016-02-03T13:54:32.764Z,152
2016-02-03T13:55:32.767Z,140
2016-02-03T13:56:32.785Z,132
2016-02-03T13:57:32.770Z,132
2016-02-03T13:58:32.789Z,132
2016-02-03T13:59:32.807Z,128
2016-02-03T14:02:59.760Z,124
2016-02-03T14:03:59.777Z,124
2016-02-03T14:04:59.781Z,120
2016-02-03T14:05:59.783Z,120
2016-02-03T14:06:59.802Z,120
2016-02-03T14:07:59.804Z,124
2016-02-03T14:08:59.791Z,128
2016-02-03T14:09:59.810Z,132
2016-02-03T14:10:59.828Z,140
2016-02-03T14:11:59.831Z,144
2016-02-03T14:12:59.837Z,152
2016-02-03T14:13:59.839Z,152
2016-02-03T14:14:59.842Z,148
2016-02-03T14:15:59.845Z,140
2016-02-03T14:16:59.893Z,144
2016-02-03T14:17:59.881Z,144
2016-02-03T14:18:59.869Z,144
2016-02-03T14:19:59.871Z,140
2016-02-03T14:20:59.890Z,132
2016-02-03T14:21:59.893Z,128
2016-02-03T14:22:59.895Z,128
2016-02-03T14:23:59.913Z,140
2016-02-03T14:24:59.917Z,164
2016-02-03T14:25:59.935Z,188
2016-02-03T14:26:59.922Z,212
2016-02-03T14:27:59.971Z,224
2016-02-03T14:28:59.951Z,220
2016-02-03T14:30:40.297Z,228
2016-02-03T14:30:59.956Z,236
2016-02-03T14:31:59.975Z,240
2016-02-03T14:32:59.978Z,240
2016-02-03T14:33:59.965Z,228
2016-02-03T14:34:59.983Z,228
2016-02-03T14:36:00.018Z,236
2016-02-03T14:37:00.006Z,240
2016-02-03T14:38:00.009Z,236
2016-02-03T14:39:00.012Z,236
2016-02-03T14:40:00.015Z,228
2016-02-03T14:41:00.048Z,228
2016-02-03T14:42:00.036Z,224
2016-02-03T14:43:00.039Z,220
2016-02-03T14:44:00.073Z,220
2016-02-03T14:45:00.061Z,216
2016-02-03T14:46:00.063Z,212
2016-02-03T14:47:00.081Z,208
2016-02-03T14:48:00.084Z,208
2016-02-03T14:49:00.087Z,204
2016-02-03T14:50:00.090Z,200
2016-02-03T14:51:00.092Z,196
2016-02-03T14:52:00.095Z,200
2016-02-03T14:53:00.114Z,192
2016-02-03T14:54:00.131Z,188
2016-02-03T14:55:00.120Z,188
2016-02-03T14:56:00.140Z,192
2016-02-03T14:57:00.173Z,188
2016-02-03T14:58:00.239Z,192
2016-02-03T14:59:00.164Z,188
2016-02-03T15:01:57.548Z,176
2016-02-03T15:02:47.159Z,164
2016-02-03T15:03:46.898Z,164
2016-02-03T15:04:46.979Z,156
2016-02-03T15:05:46.982Z,144
2016-02-03T15:06:46.968Z,140
2016-02-03T15:07:47.004Z,136
2016-02-03T15:08:47.007Z,132
2016-02-03T15:09:47.010Z,128
2016-02-03T15:10:47.012Z,128
2016-02-03T15:11:47.031Z,124
2016-02-03T15:12:47.018Z,120
2016-02-03T15:13:47.069Z,124
2016-02-03T15:14:47.038Z,116
2016-02-03T15:15:47.056Z,120
2016-02-03T15:16:47.060Z,124
2016-02-03T15:17:47.063Z,116
2016-02-03T15:18:47.393Z,116
2016-02-03T15:19:47.836Z,112
2016-02-03T15:20:47.089Z,108
2016-02-03T15:21:47.091Z,116
2016-02-03T15:22:47.109Z,112
2016-02-03T15:23:47.127Z,116
2016-02-03T15:24:47.100Z,116
2016-02-03T15:25:48.477Z,112
2016-02-03T15:26:47.230Z,116
2016-02-03T15:27:47.169Z,104
2016-02-03T15:28:47.141Z,92
2016-02-03T15:29:47.175Z,88
2016-02-03T15:33:56.626Z,72
2016-02-03T15:34:37.032Z,68
2016-02-03T15:35:37.644Z,68
2016-02-03T15:36:36.444Z,68
2016-02-03T15:37:36.447Z,64
2016-02-03T15:38:36.435Z,60
2016-02-03T15:39:36.297Z,60
2016-02-03T15:40:36.487Z,52
2016-02-03T15:41:38.490Z,48